Time;durP1;ratioP1;P1;durP2;ratioP2;P2;SDS_P1;SDS_P2;PMS_P1;PMS_P2;Temp;Humidity;BMP_temperature;BMP_pressure;BME280_temperature;BME280_humidity;BME280_pressure;Samples;Min_cycle;Max_cycle;Signal;HPM_P1;HPM_P2
2021/04/04 00:01:42;;;;;;;3.00;0.83;;;3.50;94.50;;;;;;5096261;28;20195;-69
2021/04/04 00:04:08;;;;;;;2.90;0.83;;;3.60;94.70;;;;;;5096735;28;20171;-70
2021/04/04 00:06:34;;;;;;;2.73;0.70;;;3.50;95.10;;;;;;5096544;28;20202;-71
2021/04/04 00:08:59;;;;;;;3.20;0.70;;;3.40;94.90;;;;;;5096917;28;20172;-72
2021/04/04 00:11:25;;;;;;;2.90;1.00;;;3.40;95.10;;;;;;5094889;28;20589;-71
2021/04/04 00:13:51;;;;;;;2.80;0.88;;;3.40;95.30;;;;;;5096569;28;20187;-69
2021/04/04 00:16:17;;;;;;;2.63;0.60;;;3.30;95.80;;;;;;5096478;28;20248;-70
2021/04/04 00:18:43;;;;;;;5.07;1.70;;;3.30;96.30;;;;;;5095315;28;20188;-70
2021/04/04 00:21:09;;;;;;;2.77;0.70;;;3.20;96.30;;;;;;5096073;28;20550;-71
2021/04/04 00:23:35;;;;;;;2.80;0.73;;;3.10;96.90;;;;;;5096689;28;20237;-71
2021/04/04 00:26:02;;;;;;;3.45;0.98;;;3.20;97.20;;;;;;5095806;28;20196;-70
2021/04/04 00:28:28;;;;;;;4.05;0.75;;;3.10;97.40;;;;;;5096784;28;20246;-70
2021/04/04 00:30:53;;;;;;;3.13;1.35;;;3.10;97.60;;;;;;5094738;28;20545;-68
2021/04/04 00:33:19;;;;;;;4.43;1.20;;;3.00;97.70;;;;;;5096815;28;20169;-70
2021/04/04 00:35:45;;;;;;;3.53;1.37;;;3.00;98.20;;;;;;5095338;28;20539;-72
2021/04/04 00:38:11;;;;;;;2.70;0.50;;;3.00;98.00;;;;;;5096554;28;20643;-71
2021/04/04 00:40:38;;;;;;;3.30;0.95;;;2.90;98.20;;;;;;5096026;28;20195;-69
2021/04/04 00:43:05;;;;;;;3.20;1.42;;;2.90;98.30;;;;;;5096417;28;20159;-70
2021/04/04 00:45:39;;;;;;;2.90;0.82;;;2.90;98.70;;;;;;5095444;28;20666;-71
2021/04/04 00:48:06;;;;;;;4.45;0.90;;;2.90;99.00;;;;;;5096463;28;20557;-69
2021/04/04 00:50:38;;;;;;;3.55;0.80;;;2.80;99.30;;;;;;5095485;28;20176;-70
2021/04/04 00:53:05;;;;;;;3.13;1.30;;;2.80;99.40;;;;;;5096050;28;20172;-70
2021/04/04 00:55:32;;;;;;;3.70;1.33;;;2.80;99.40;;;;;;5095467;28;20192;-69
2021/04/04 00:57:59;;;;;;;3.63;1.30;;;2.70;99.50;;;;;;5096101;28;20176;-69
2021/04/04 01:00:27;;;;;;;3.47;1.33;;;2.70;99.60;;;;;;5095827;28;20230;-69
2021/04/04 01:02:55;;;;;;;3.10;1.05;;;2.70;99.70;;;;;;5095774;28;20552;-70
2021/04/04 01:05:27;;;;;;;2.90;0.70;;;2.70;99.80;;;;;;5093935;28;20169;-70
2021/04/04 01:07:56;;;;;;;3.40;1.05;;;2.60;99.90;;;;;;5094480;28;20709;-69
2021/04/04 01:10:22;;;;;;;4.72;2.88;;;2.60;99.90;;;;;;5095287;28;20187;-69
2021/04/04 01:13:06;;;;;;;5.50;1.10;;;2.50;99.90;;;;;;5094192;28;20341;-69
2021/04/04 01:15:40;;;;;;;3.47;0.90;;;2.50;99.90;;;;;;5094563;28;20543;-68
2021/04/04 01:18:26;;;;;;;3.20;1.05;;;2.50;99.90;;;;;;5095557;28;20180;-69
2021/04/04 01:20:59;;;;;;;3.03;1.10;;;2.50;99.90;;;;;;5094882;28;20191;-69
2021/04/04 01:23:39;;;;;;;3.50;0.80;;;2.40;99.90;;;;;;5095414;28;20243;-69
2021/04/04 01:26:12;;;;;;;3.10;0.93;;;2.40;99.90;;;;;;5094809;28;20756;-70
2021/04/04 01:28:40;;;;;;;3.63;1.63;;;2.40;99.90;;;;;;5095128;28;20217;-70
2021/04/04 01:31:08;;;;;;;2.85;0.65;;;2.30;99.90;;;;;;5094835;28;20198;-70
2021/04/04 01:33:35;;;;;;;2.90;0.80;;;2.30;99.90;;;;;;5094138;28;20172;-70
2021/04/04 01:36:04;;;;;;;3.10;1.00;;;2.20;99.90;;;;;;5094251;28;20273;-69
2021/04/04 01:38:33;;;;;;;3.53;1.02;;;2.20;99.90;;;;;;5094630;28;20257;-68
2021/04/04 01:41:25;;;;;;;2.90;0.60;;;2.20;99.90;;;;;;5095156;28;20214;-71
2021/04/04 01:43:55;;;;;;;4.75;2.17;;;2.20;99.90;;;;;;5085144;28;20205;-69
2021/04/04 01:46:21;;;;;;;2.83;0.70;;;2.10;99.90;;;;;;5094912;28;20192;-70
2021/04/04 01:48:48;;;;;;;3.00;0.70;;;2.10;99.90;;;;;;5095148;28;20263;-70
2021/04/04 01:51:14;;;;;;;3.90;1.70;;;2.10;99.90;;;;;;5094487;28;20584;-69
2021/04/04 01:53:41;;;;;;;5.23;2.50;;;2.10;99.90;;;;;;5095016;28;20176;-69
2021/04/04 01:56:08;;;;;;;2.90;0.75;;;2.10;99.90;;;;;;5093169;28;20487;-69
2021/04/04 01:58:37;;;;;;;5.05;1.52;;;2.00;99.90;;;;;;5094411;28;20172;-70
2021/04/04 02:01:03;;;;;;;5.40;2.15;;;2.00;99.90;;;;;;5094154;28;20199;-70
2021/04/04 02:03:30;;;;;;;3.28;0.82;;;2.00;99.90;;;;;;5094960;28;20249;-71
2021/04/04 02:05:57;;;;;;;3.45;1.40;;;2.10;99.90;;;;;;5093981;28;20712;-69
2021/04/04 02:08:24;;;;;;;3.50;1.23;;;2.10;99.90;;;;;;5094757;28;20179;-69
2021/04/04 02:10:51;;;;;;;3.13;1.13;;;2.10;99.90;;;;;;5093969;28;20174;-70
2021/04/04 02:13:18;;;;;;;3.88;1.05;;;2.00;99.90;;;;;;5094243;28;20180;-69
2021/04/04 02:15:45;;;;;;;3.85;1.42;;;2.00;99.90;;;;;;5093862;28;20202;-69
2021/04/04 02:18:11;;;;;;;3.17;0.77;;;1.90;99.90;;;;;;5092752;28;20183;-69
2021/04/04 02:20:39;;;;;;;2.88;0.57;;;1.80;99.90;;;;;;5093735;28;20195;-69
2021/04/04 02:23:10;;;;;;;2.97;0.63;;;1.80;99.90;;;;;;5094458;28;20244;-70
2021/04/04 02:25:37;;;;;;;3.10;0.80;;;1.80;99.90;;;;;;5093597;28;20750;-69
2021/04/04 02:28:04;;;;;;;2.80;0.50;;;1.70;99.90;;;;;;5093953;28;20172;-70
2021/04/04 02:30:30;;;;;;;3.67;1.00;;;1.70;99.90;;;;;;5092462;28;20175;-69
2021/04/04 02:33:00;;;;;;;3.40;0.80;;;1.70;99.90;;;;;;5094199;28;20488;-69
2021/04/04 02:35:32;;;;;;;4.95;1.40;;;1.70;99.90;;;;;;5093226;28;20195;-69
2021/04/04 02:37:59;;;;;;;3.47;1.30;;;1.60;99.90;;;;;;5094348;28;20210;-71
2021/04/04 02:40:26;;;;;;;3.00;0.70;;;1.60;99.90;;;;;;5093567;28;20196;-70
2021/04/04 02:42:56;;;;;;;3.10;0.98;;;1.60;99.90;;;;;;5093972;28;20194;-71
2021/04/04 02:45:26;;;;;;;3.85;0.82;;;1.60;99.90;;;;;;5093048;28;20183;-69
2021/04/04 02:48:08;;;;;;;3.72;1.38;;;1.60;99.90;;;;;;5093992;28;20164;-69
2021/04/04 02:50:36;;;;;;;3.45;1.13;;;1.60;99.90;;;;;;5093792;28;20539;-70
2021/04/04 02:53:03;;;;;;;3.10;0.75;;;1.50;99.90;;;;;;5093622;28;20624;-69
2021/04/04 02:55:33;;;;;;;3.17;0.80;;;1.50;99.90;;;;;;5093086;28;20243;-71
2021/04/04 02:58:02;;;;;;;3.00;0.80;;;1.50;99.90;;;;;;5093571;28;20222;-70
2021/04/04 03:00:28;;;;;;;3.10;0.80;;;1.50;99.90;;;;;;5093358;28;20198;-70
2021/04/04 03:02:55;;;;;;;2.95;0.70;;;1.50;99.90;;;;;;5092637;28;20174;-70
2021/04/04 03:05:26;;;;;;;3.20;0.93;;;1.50;99.90;;;;;;5091309;28;20172;-71
2021/04/04 03:07:54;;;;;;;3.20;1.00;;;1.50;99.90;;;;;;5094182;28;20183;-71
2021/04/04 03:10:20;;;;;;;3.20;0.88;;;1.50;99.90;;;;;;5093489;28;20179;-70
2021/04/04 03:12:49;;;;;;;3.87;1.50;;;1.50;99.90;;;;;;5093611;28;20163;-70
2021/04/04 03:15:16;;;;;;;3.00;0.75;;;1.50;99.90;;;;;;5091299;28;20931;-71
2021/04/04 03:17:44;;;;;;;2.90;0.60;;;1.40;99.90;;;;;;5093264;28;20249;-71
2021/04/04 03:20:11;;;;;;;5.03;1.67;;;1.30;99.90;;;;;;5093009;28;20192;-71
2021/04/04 03:22:39;;;;;;;2.90;0.50;;;1.30;99.90;;;;;;5092181;28;20164;-71
2021/04/04 03:25:07;;;;;;;2.90;0.40;;;1.40;99.90;;;;;;5092422;28;20642;-70
2021/04/04 03:27:38;;;;;;;4.05;1.17;;;1.30;99.90;;;;;;5093551;28;20582;-71
2021/04/04 03:30:08;;;;;;;3.00;0.82;;;1.30;99.90;;;;;;5098362;28;20171;-71
2021/04/04 03:32:35;;;;;;;2.90;0.60;;;1.30;99.90;;;;;;5100130;28;20247;-71
2021/04/04 03:35:04;;;;;;;3.92;0.70;;;1.30;99.90;;;;;;5099442;28;20174;-71
2021/04/04 03:37:31;;;;;;;3.63;1.20;;;1.30;99.90;;;;;;5100142;28;20167;-70
2021/04/04 03:39:57;;;;;;;3.00;0.90;;;1.30;99.90;;;;;;5099392;28;20167;-73
2021/04/04 03:42:27;;;;;;;2.95;0.60;;;1.20;99.90;;;;;;5100287;28;20168;-70
2021/04/04 03:44:57;;;;;;;3.90;1.40;;;1.20;99.90;;;;;;5099289;28;20233;-69
2021/04/04 03:47:23;;;;;;;3.00;0.82;;;1.20;99.90;;;;;;5099967;28;20730;-71
2021/04/04 03:49:49;;;;;;;2.90;0.50;;;1.20;99.90;;;;;;5099981;28;20195;-71
2021/04/04 03:52:17;;;;;;;4.43;1.00;;;1.20;99.90;;;;;;5100111;28;20447;-69
2021/04/04 03:54:43;;;;;;;3.30;1.08;;;1.20;99.90;;;;;;5098933;28;20911;-70
2021/04/04 03:57:10;;;;;;;2.90;0.50;;;1.20;99.90;;;;;;5098604;28;20279;-69
2021/04/04 03:59:39;;;;;;;4.38;0.85;;;1.10;99.90;;;;;;5099452;28;20184;-70
2021/04/04 04:02:06;;;;;;;3.10;0.80;;;1.20;99.90;;;;;;5099950;28;20287;-70
2021/04/04 04:04:32;;;;;;;3.75;1.73;;;1.10;99.90;;;;;;5098901;28;20183;-69
2021/04/04 04:07:00;;;;;;;3.10;0.95;;;1.10;99.90;;;;;;5099941;28;20179;-70
2021/04/04 04:09:26;;;;;;;3.92;1.45;;;1.20;99.90;;;;;;5099477;28;20172;-71
2021/04/04 04:11:54;;;;;;;3.42;1.25;;;1.10;99.90;;;;;;5099801;28;20186;-69
2021/04/04 04:14:22;;;;;;;3.20;0.80;;;1.10;99.90;;;;;;5098659;28;20818;-71
2021/04/04 04:16:49;;;;;;;2.90;0.60;;;1.00;99.90;;;;;;5099726;28;20540;-70
2021/04/04 04:19:16;;;;;;;3.95;1.73;;;1.00;99.90;;;;;;5098086;28;20655;-70
2021/04/04 04:21:41;;;;;;;3.10;0.90;;;1.00;99.90;;;;;;5099673;28;20203;-69
2021/04/04 04:24:11;;;;;;;4.30;1.27;;;0.90;99.90;;;;;;5099042;28;20175;-71
2021/04/04 04:26:44;;;;;;;2.90;0.50;;;0.80;99.90;;;;;;5099520;28;20195;-72
2021/04/04 04:29:14;;;;;;;3.13;0.93;;;0.90;99.90;;;;;;5098668;28;20253;-71
2021/04/04 04:31:44;;;;;;;3.40;1.05;;;0.80;99.90;;;;;;5099516;28;20764;-71
2021/04/04 04:34:12;;;;;;;3.03;0.80;;;0.80;99.90;;;;;;5099080;28;20228;-71
2021/04/04 04:36:42;;;;;;;2.78;0.55;;;0.80;99.90;;;;;;5099304;28;20184;-71
2021/04/04 04:39:11;;;;;;;2.88;0.50;;;0.80;99.90;;;;;;5099147;28;20692;-71
2021/04/04 04:41:45;;;;;;;3.30;0.90;;;0.70;99.90;;;;;;5096714;28;20200;-71
2021/04/04 04:44:14;;;;;;;2.90;0.50;;;0.80;99.90;;;;;;5095420;28;20259;-69
2021/04/04 04:46:42;;;;;;;2.90;0.60;;;0.80;99.90;;;;;;5096279;28;20217;-70
2021/04/04 04:49:08;;;;;;;2.90;0.50;;;0.80;99.90;;;;;;5094750;28;20226;-71
2021/04/04 04:51:34;;;;;;;2.90;0.65;;;0.80;99.90;;;;;;5094942;28;20168;-71
2021/04/04 04:54:00;;;;;;;3.05;0.63;;;0.70;99.90;;;;;;5095425;28;20196;-71
2021/04/04 04:56:27;;;;;;;3.47;0.77;;;0.70;99.90;;;;;;5096060;28;20285;-71
2021/04/04 04:58:54;;;;;;;3.20;0.60;;;0.70;99.90;;;;;;5095448;28;20449;-70
2021/04/04 05:01:28;;;;;;;3.30;1.02;;;0.70;99.90;;;;;;5095992;28;20231;-71
2021/04/04 05:03:54;;;;;;;2.95;0.47;;;0.70;99.90;;;;;;5095210;28;20197;-71
2021/04/04 05:06:24;;;;;;;2.90;0.47;;;0.80;99.90;;;;;;5095861;28;20184;-71
2021/04/04 05:08:49;;;;;;;3.03;0.60;;;0.80;99.90;;;;;;5095202;28;20414;-72
2021/04/04 05:11:17;;;;;;;3.73;1.40;;;0.90;99.90;;;;;;5095442;28;20627;-71
2021/04/04 05:13:43;;;;;;;3.58;0.82;;;1.00;99.90;;;;;;5090079;28;20455;-73
2021/04/04 05:16:11;;;;;;;3.00;0.50;;;1.20;99.90;;;;;;5090978;28;20237;-71
2021/04/04 05:18:42;;;;;;;3.75;1.17;;;1.30;99.90;;;;;;5088855;28;20939;-71
2021/04/04 05:21:08;;;;;;;5.65;1.70;;;1.50;99.90;;;;;;5095652;28;20192;-70
2021/04/04 05:23:33;;;;;;;3.57;1.10;;;1.80;99.90;;;;;;5092356;28;20172;-71
2021/04/04 05:26:00;;;;;;;3.30;1.07;;;2.10;99.90;;;;;;5094934;28;20289;-71
2021/04/04 05:28:25;;;;;;;3.10;0.77;;;2.30;99.90;;;;;;5095209;28;20262;-70
2021/04/04 05:30:51;;;;;;;3.93;1.03;;;2.40;99.90;;;;;;5095291;28;20251;-69
2021/04/04 05:33:17;;;;;;;3.37;0.90;;;2.70;99.90;;;;;;5093711;28;20200;-72
2021/04/04 05:35:43;;;;;;;3.30;1.20;;;2.90;99.90;;;;;;5082596;28;20661;-69
2021/04/04 05:38:10;;;;;;;4.50;1.08;;;3.10;99.90;;;;;;5094913;28;20176;-68
2021/04/04 05:40:37;;;;;;;3.60;1.15;;;3.30;99.90;;;;;;5095006;28;20188;-68
2021/04/04 05:43:10;;;;;;;3.80;1.40;;;3.10;99.90;;;;;;5094616;28;20737;-67
2021/04/04 05:45:51;;;;;;;3.42;1.10;;;3.20;99.90;;;;;;5094545;28;20184;-70
2021/04/04 05:48:34;;;;;;;3.35;1.23;;;3.30;99.90;;;;;;5093462;28;20175;-68
2021/04/04 05:51:27;;;;;;;3.05;0.70;;;3.50;99.90;;;;;;5093569;28;20199;-69
2021/04/04 05:53:59;;;;;;;3.90;1.58;;;3.70;99.90;;;;;;5094027;28;20176;-69
2021/04/04 05:56:37;;;;;;;3.67;1.40;;;3.90;99.90;;;;;;5094658;28;20206;-68
2021/04/04 05:59:14;;;;;;;3.75;1.67;;;3.90;99.90;;;;;;5094670;28;20179;-67
2021/04/04 06:02:05;;;;;;;4.10;2.75;;;4.00;99.90;;;;;;5094566;28;20253;-70
2021/04/04 06:04:57;;;;;;;3.40;1.20;;;4.20;99.90;;;;;;5074007;28;20173;-71
2021/04/04 06:07:59;;;;;;;5.65;1.13;;;4.30;99.90;;;;;;5076327;28;20208;-71
2021/04/04 06:10:49;;;;;;;4.28;1.45;;;4.40;99.90;;;;;;5094279;28;20202;-67
2021/04/04 06:13:36;;;;;;;4.85;1.63;;;4.60;99.90;;;;;;5087417;28;20194;-69
2021/04/04 06:16:26;;;;;;;3.47;1.15;;;4.90;99.60;;;;;;5092152;28;20187;-70
2021/04/04 06:19:04;;;;;;;3.55;1.45;;;5.20;98.50;;;;;;5092968;28;20188;-70
2021/04/04 06:21:36;;;;;;;3.45;1.10;;;5.60;97.90;;;;;;5093265;28;20662;-70
2021/04/04 06:24:36;;;;;;;3.75;1.33;;;6.20;96.20;;;;;;5092772;28;20268;-69
2021/04/04 06:27:20;;;;;;;3.40;1.02;;;6.60;94.60;;;;;;5072979;28;20189;-68
2021/04/04 06:29:58;;;;;;;3.30;0.75;;;6.90;93.50;;;;;;5092119;28;20218;-67
2021/04/04 06:32:28;;;;;;;3.30;1.00;;;7.20;93.20;;;;;;5092597;28;20172;-70
2021/04/04 06:35:00;;;;;;;3.67;1.10;;;7.50;91.90;;;;;;5092850;28;20198;-70
2021/04/04 06:37:44;;;;;;;4.07;1.40;;;7.50;90.70;;;;;;5092688;28;20581;-70
2021/04/04 06:40:14;;;;;;;5.30;1.73;;;7.50;90.90;;;;;;5092561;28;20176;-71
2021/04/04 06:42:53;;;;;;;3.70;1.35;;;7.60;90.80;;;;;;5092761;28;20538;-75
2021/04/04 06:45:42;;;;;;;3.78;1.50;;;7.90;89.80;;;;;;5091119;28;20180;-71
2021/04/04 06:48:19;;;;;;;4.18;1.45;;;8.60;89.70;;;;;;5093017;28;20174;-69
2021/04/04 06:50:54;;;;;;;4.50;1.75;;;9.40;84.80;;;;;;5092637;28;20217;-69
2021/04/04 06:53:26;;;;;;;4.85;1.90;;;9.80;79.40;;;;;;5092648;28;20614;-66
2021/04/04 06:56:08;;;;;;;6.75;1.98;;;9.90;78.40;;;;;;5092149;28;20210;-67
2021/04/04 06:59:14;;;;;;;4.63;2.00;;;9.80;78.80;;;;;;5092686;28;20173;-68
2021/04/04 07:02:01;;;;;;;5.93;1.85;;;9.50;79.10;;;;;;5087834;28;20200;-69
2021/04/04 07:04:41;;;;;;;5.93;1.83;;;9.50;79.50;;;;;;5091534;28;20246;-69
2021/04/04 07:07:33;;;;;;;4.25;1.65;;;9.50;79.80;;;;;;5092567;28;20180;-72
2021/04/04 07:10:19;;;;;;;3.58;1.33;;;9.40;79.00;;;;;;5092485;28;20176;-71
2021/04/04 07:13:04;;;;;;;5.63;2.20;;;9.40;78.30;;;;;;5093253;28;20179;-67
2021/04/04 07:15:55;;;;;;;3.17;1.20;;;9.50;77.90;;;;;;5092674;28;20199;-67
2021/04/04 07:18:39;;;;;;;7.97;2.42;;;9.60;78.20;;;;;;5092864;28;20212;-68
2021/04/04 07:21:16;;;;;;;6.50;1.80;;;9.80;77.90;;;;;;5083176;28;20192;-69
2021/04/04 07:23:42;;;;;;;5.95;2.00;;;10.10;76.40;;;;;;5091873;28;20169;-68
2021/04/04 07:26:25;;;;;;;3.57;1.47;;;10.20;74.90;;;;;;5092706;28;20192;-69
2021/04/04 07:28:57;;;;;;;6.45;2.33;;;10.40;75.30;;;;;;5085930;28;20542;-69
2021/04/04 07:31:27;;;;;;;5.57;2.10;;;10.30;74.80;;;;;;5088176;28;20974;-68
2021/04/04 07:34:09;;;;;;;6.73;2.40;;;10.50;74.40;;;;;;5083498;28;20435;-69
2021/04/04 07:36:50;;;;;;;5.43;2.43;;;10.90;74.20;;;;;;5093086;28;20787;-68
2021/04/04 07:39:45;;;;;;;6.30;2.47;;;11.30;74.40;;;;;;5092853;28;20896;-67
2021/04/04 07:42:23;;;;;;;5.33;2.30;;;11.80;72.80;;;;;;5080028;28;20453;-69
2021/04/04 07:44:56;;;;;;;4.90;2.83;;;12.10;72.40;;;;;;5092808;28;20413;-69
2021/04/04 07:47:45;;;;;;;5.53;3.03;;;12.50;70.70;;;;;;5092589;28;20464;-68
2021/04/04 07:50:21;;;;;;;6.20;2.90;;;12.40;69.60;;;;;;5081870;28;20502;-70
2021/04/04 07:52:55;;;;;;;5.33;2.90;;;12.60;68.90;;;;;;5092416;28;20421;-69
2021/04/04 07:55:59;;;;;;;7.30;3.10;;;13.10;68.90;;;;;;5091246;28;20418;-68
2021/04/04 07:58:37;;;;;;;4.97;2.33;;;14.00;67.80;;;;;;5092084;28;20426;-71
2021/04/04 08:01:15;;;;;;;6.83;3.40;;;15.40;66.00;;;;;;5092112;28;20459;-71
2021/04/04 08:03:53;;;;;;;5.60;2.80;;;16.40;60.00;;;;;;5091818;28;20459;-67
2021/04/04 08:06:24;;;;;;;7.03;3.07;;;17.00;59.00;;;;;;5091045;28;20460;-67
2021/04/04 08:09:01;;;;;;;4.93;3.33;;;17.90;59.00;;;;;;5089303;28;20436;-67
2021/04/04 08:11:50;;;;;;;5.43;3.30;;;18.30;55.70;;;;;;5085110;28;20393;-66
2021/04/04 08:14:22;;;;;;;5.90;3.30;;;18.50;55.20;;;;;;5081891;28;20449;-65
2021/04/04 08:16:55;;;;;;;6.33;2.87;;;18.80;55.00;;;;;;5094508;28;20829;-68
2021/04/04 08:19:21;;;;;;;8.30;3.43;;;19.00;54.00;;;;;;5095152;28;20438;-68
2021/04/04 08:22:13;;;;;;;4.60;2.83;;;19.70;53.40;;;;;;5094387;28;20461;-68
2021/04/04 08:24:48;;;;;;;4.60;2.60;;;20.50;51.50;;;;;;5095602;28;20519;-69
2021/04/04 08:27:27;;;;;;;5.60;3.37;;;20.40;50.30;;;;;;5076105;28;20418;-68
2021/04/04 08:30:17;;;;;;;5.17;3.33;;;20.50;49.50;;;;;;5082665;28;20430;-69
2021/04/04 08:32:59;;;;;;;4.60;3.10;;;21.00;49.60;;;;;;5096393;28;20381;-69
2021/04/04 08:35:29;;;;;;;5.83;2.70;;;21.20;48.70;;;;;;5092299;28;20528;-69
2021/04/04 08:38:03;;;;;;;4.37;2.50;;;21.50;48.50;;;;;;5094962;28;20437;-67
2021/04/04 08:40:29;;;;;;;4.90;2.70;;;21.20;47.10;;;;;;5094827;28;20796;-66
2021/04/04 08:42:55;;;;;;;4.37;2.77;;;21.10;47.20;;;;;;5094632;28;20414;-66
2021/04/04 08:45:31;;;;;;;4.47;2.30;;;21.40;46.70;;;;;;5095244;28;20175;-67
2021/04/04 08:47:58;;;;;;;7.30;2.30;;;21.40;47.10;;;;;;5095987;28;20455;-68
2021/04/04 08:50:26;;;;;;;4.70;2.00;;;21.10;46.20;;;;;;5095530;28;20830;-69
2021/04/04 08:52:59;;;;;;;5.90;2.77;;;21.20;46.30;;;;;;5095734;28;20418;-69
2021/04/04 08:55:29;;;;;;;10.03;2.73;;;21.50;46.30;;;;;;5095191;28;20441;-67
2021/04/04 08:58:00;;;;;;;3.60;2.30;;;22.20;46.60;;;;;;5095725;28;20917;-69
2021/04/04 09:00:28;;;;;;;6.77;2.60;;;22.70;45.50;;;;;;5094133;28;20430;-68
2021/04/04 09:03:05;;;;;;;6.90;2.70;;;23.30;44.80;;;;;;5094488;28;20410;-68
2021/04/04 09:05:34;;;;;;;6.57;2.80;;;23.40;44.10;;;;;;5094490;28;20442;-68
2021/04/04 09:08:02;;;;;;;4.87;2.60;;;23.30;44.00;;;;;;5095678;28;20465;-68
2021/04/04 09:10:38;;;;;;;4.80;2.80;;;22.80;44.00;;;;;;5095076;28;20915;-68
2021/04/04 09:13:17;;;;;;;5.57;3.57;;;22.70;43.70;;;;;;5095438;28;20916;-68
2021/04/04 09:15:50;;;;;;;4.17;2.80;;;22.60;44.10;;;;;;5094638;28;20527;-68
2021/04/04 09:18:17;;;;;;;4.30;2.70;;;22.70;44.20;;;;;;5094822;28;20524;-69
2021/04/04 09:20:45;;;;;;;6.47;3.00;;;23.10;44.00;;;;;;5095158;28;20389;-68
2021/04/04 09:23:13;;;;;;;5.00;2.53;;;23.50;43.50;;;;;;5095266;28;20380;-68
2021/04/04 09:25:49;;;;;;;5.80;2.70;;;23.90;44.40;;;;;;5094390;28;20446;-68
2021/04/04 09:28:15;;;;;;;4.97;2.60;;;24.20;44.30;;;;;;5093793;28;20400;-68
2021/04/04 09:30:44;;;;;;;5.37;2.77;;;24.90;42.70;;;;;;5094719;28;20919;-68
2021/04/04 09:33:17;;;;;;;4.40;2.53;;;25.00;41.70;;;;;;5095033;28;20458;-68
2021/04/04 09:35:43;;;;;;;4.20;3.00;;;24.80;41.60;;;;;;5094106;28;20404;-68
2021/04/04 09:38:17;;;;;;;4.90;3.30;;;25.00;42.00;;;;;;5094951;28;20875;-67
2021/04/04 09:40:44;;;;;;;6.97;3.67;;;23.70;40.80;;;;;;5094083;28;20523;-69
2021/04/04 09:43:15;;;;;;;6.10;3.57;;;23.50;41.60;;;;;;5094873;28;20392;-68
2021/04/04 09:45:42;;;;;;;5.73;3.10;;;23.30;42.80;;;;;;5090528;28;20425;-68
2021/04/04 09:48:28;;;;;;;5.00;2.80;;;24.00;42.90;;;;;;5094868;28;20402;-68
2021/04/04 09:51:19;;;;;;;4.90;2.97;;;24.00;41.50;;;;;;5093756;28;20482;-67
2021/04/04 09:53:47;;;;;;;4.47;3.10;;;24.20;41.20;;;;;;5090176;28;20453;-70
2021/04/04 09:56:37;;;;;;;4.37;2.40;;;24.50;41.20;;;;;;5094384;28;20438;-67
2021/04/04 09:59:03;;;;;;;4.33;2.90;;;24.80;40.80;;;;;;5094317;28;20446;-69
2021/04/04 10:01:32;;;;;;;4.63;2.67;;;24.70;41.80;;;;;;5094154;28;20789;-68
2021/04/04 10:04:06;;;;;;;5.03;2.90;;;24.60;40.40;;;;;;5094244;28;20164;-68
2021/04/04 10:06:33;;;;;;;3.60;2.30;;;24.40;40.40;;;;;;5093652;28;20480;-67
2021/04/04 10:09:00;;;;;;;3.97;2.23;;;23.80;40.90;;;;;;5093012;28;20393;-67
2021/04/04 10:11:27;;;;;;;3.10;1.83;;;23.70;38.60;;;;;;5092738;28;20457;-67
2021/04/04 10:14:05;;;;;;;4.03;2.23;;;24.10;37.30;;;;;;5093988;28;20887;-69
2021/04/04 10:16:31;;;;;;;3.13;1.73;;;23.80;36.30;;;;;;5093683;28;20442;-69
2021/04/04 10:19:02;;;;;;;3.10;1.50;;;23.80;36.80;;;;;;5094030;28;20429;-68
2021/04/04 10:21:28;;;;;;;3.93;2.00;;;23.80;37.90;;;;;;5093679;28;20475;-68
2021/04/04 10:23:54;;;;;;;4.00;1.70;;;23.30;38.80;;;;;;5091296;28;20779;-68
2021/04/04 10:26:22;;;;;;;3.40;1.53;;;23.40;37.90;;;;;;5092901;28;20677;-68
2021/04/04 10:28:51;;;;;;;4.33;1.90;;;23.60;37.50;;;;;;5085979;28;20180;-68
2021/04/04 10:31:18;;;;;;;3.50;1.80;;;23.10;38.00;;;;;;5089360;28;20541;-68
2021/04/04 10:33:43;;;;;;;4.33;2.00;;;23.20;38.20;;;;;;5073617;28;20423;-69
2021/04/04 10:36:16;;;;;;;4.30;1.93;;;23.40;37.80;;;;;;5080706;28;20787;-68
2021/04/04 10:38:42;;;;;;;3.20;1.57;;;23.10;37.90;;;;;;5090893;28;20168;-69
2021/04/04 10:41:08;;;;;;;3.47;1.77;;;23.20;39.90;;;;;;5092560;28;20444;-68
2021/04/04 10:43:42;;;;;;;3.50;1.50;;;23.00;39.40;;;;;;5093242;28;20907;-71
2021/04/04 10:46:13;;;;;;;4.03;1.90;;;22.80;39.20;;;;;;5092840;28;20445;-70
2021/04/04 10:48:43;;;;;;;3.43;1.63;;;22.50;39.00;;;;;;5092392;28;20910;-72
2021/04/04 10:51:11;;;;;;;4.67;1.50;;;22.20;39.20;;;;;;5091320;28;20496;-72
2021/04/04 10:53:38;;;;;;;2.93;1.60;;;21.60;39.20;;;;;;5091474;28;20422;-68
2021/04/04 10:56:05;;;;;;;4.70;1.67;;;21.20;39.00;;;;;;5088288;28;20498;-70
2021/04/04 10:58:31;;;;;;;3.70;1.43;;;20.90;39.50;;;;;;5093302;28;20410;-71
2021/04/04 11:00:59;;;;;;;3.70;1.57;;;20.90;38.10;;;;;;5093224;28;20420;-74
2021/04/04 11:03:26;;;;;;;4.73;1.97;;;20.90;39.00;;;;;;5093130;28;20243;-71
2021/04/04 11:05:52;;;;;;;3.50;1.53;;;20.30;40.00;;;;;;5092758;28;20764;-73
2021/04/04 11:08:19;;;;;;;4.13;1.87;;;20.20;39.90;;;;;;5093479;28;20503;-75
2021/04/04 11:10:45;;;;;;;3.40;1.70;;;20.10;39.50;;;;;;5091310;28;20227;-71
2021/04/04 11:13:16;;;;;;;3.03;1.40;;;19.30;39.50;;;;;;5092989;28;20952;-70
2021/04/04 11:15:52;;;;;;;2.90;1.33;;;18.70;39.30;;;;;;5092865;28;20429;-70
2021/04/04 11:18:37;;;;;;;3.70;1.70;;;17.70;40.70;;;;;;5093433;28;20418;-72
2021/04/04 11:21:07;;;;;;;7.27;1.70;;;16.60;42.30;;;;;;5092573;28;20782;-73
2021/04/04 11:23:36;;;;;;;3.33;1.37;;;16.20;41.80;;;;;;5092839;28;20412;-72
2021/04/04 11:26:27;;;;;;;4.03;1.60;;;15.90;42.90;;;;;;5091883;28;20452;-72
2021/04/04 11:29:13;;;;;;;4.83;2.57;;;15.60;44.20;;;;;;5091705;28;20924;-71
2021/04/04 11:31:40;;;;;;;3.60;2.20;;;15.20;44.10;;;;;;5090200;28;20533;-71
2021/04/04 11:34:32;;;;;;;4.33;1.70;;;15.00;45.40;;;;;;5092387;28;20422;-72
2021/04/04 11:37:00;;;;;;;4.13;2.50;;;14.50;46.10;;;;;;5092322;28;20476;-70
2021/04/04 11:39:27;;;;;;;3.17;1.77;;;14.50;48.00;;;;;;5092851;28;20442;-71
2021/04/04 11:41:56;;;;;;;4.10;2.10;;;14.50;46.20;;;;;;5093053;28;20492;-73
2021/04/04 11:44:27;;;;;;;4.00;1.80;;;14.40;46.20;;;;;;5091155;28;20459;-72
2021/04/04 11:47:02;;;;;;;3.93;1.77;;;14.20;46.60;;;;;;5092789;28;20449;-75
2021/04/04 11:49:31;;;;;;;6.33;2.20;;;13.90;46.90;;;;;;5092668;28;20940;-67
2021/04/04 11:51:57;;;;;;;5.93;2.33;;;13.80;47.60;;;;;;5096980;28;20525;-68
2021/04/04 11:54:44;;;;;;;4.23;1.60;;;13.80;47.60;;;;;;5096075;28;20430;-70
2021/04/04 11:57:20;;;;;;;2.90;1.50;;;13.80;47.30;;;;;;5095530;28;20852;-75
2021/04/04 11:59:49;;;;;;;3.80;2.17;;;13.80;49.40;;;;;;5095655;28;20415;-72
2021/04/04 12:02:17;;;;;;;4.27;1.83;;;14.00;50.00;;;;;;5096994;28;20408;-71
2021/04/04 12:04:48;;;;;;;4.70;1.90;;;14.10;48.20;;;;;;5095656;28;20822;-69
2021/04/04 12:07:17;;;;;;;4.03;2.13;;;14.20;48.50;;;;;;5095287;28;20448;-70
2021/04/04 12:09:45;;;;;;;4.00;1.93;;;14.20;48.80;;;;;;5095703;28;20436;-72
2021/04/04 12:12:12;;;;;;;2.70;1.10;;;14.30;49.80;;;;;;5096599;28;20806;-72
2021/04/04 12:14:55;;;;;;;5.30;1.40;;;14.30;49.20;;;;;;5095910;28;20426;-71
2021/04/04 12:17:24;;;;;;;3.70;1.37;;;14.20;48.70;;;;;;5075947;28;20432;-72
2021/04/04 12:19:54;;;;;;;3.37;1.60;;;14.20;48.50;;;;;;5083637;28;20420;-71
2021/04/04 12:22:20;;;;;;;3.27;1.60;;;14.10;47.90;;;;;;5095373;28;20508;-71
2021/04/04 12:24:53;;;;;;;3.10;1.13;;;14.10;48.20;;;;;;5094408;28;20412;-71
2021/04/04 12:27:24;;;;;;;4.10;1.80;;;14.00;46.90;;;;;;5096441;28;20430;-68
2021/04/04 12:29:55;;;;;;;4.17;2.13;;;13.90;47.70;;;;;;5096127;28;20418;-70
2021/04/04 12:32:34;;;;;;;3.80;1.93;;;13.90;47.40;;;;;;5096491;28;20474;-78
2021/04/04 12:35:06;;;;;;;3.67;1.93;;;13.80;47.60;;;;;;5094332;28;20656;-75
2021/04/04 12:37:39;;;;;;;4.72;1.92;;;13.70;47.50;;;;;;5094589;28;20416;-69
2021/04/04 12:40:07;;;;;;;4.57;2.60;;;13.70;47.20;;;;;;5096119;28;20176;-69
2021/04/04 12:42:34;;;;;;;3.35;1.63;;;13.60;47.70;;;;;;5095798;28;20183;-70
2021/04/04 12:45:08;;;;;;;6.78;2.13;;;13.60;48.10;;;;;;5095795;28;20179;-72
2021/04/04 12:47:35;;;;;;;5.15;2.35;;;13.50;48.50;;;;;;5075812;28;20219;-71
2021/04/04 12:50:12;;;;;;;5.90;1.65;;;13.50;49.60;;;;;;5075940;28;20261;-71
2021/04/04 12:52:48;;;;;;;6.50;1.95;;;13.50;49.80;;;;;;5075815;28;20172;-72
2021/04/04 12:55:32;;;;;;;3.77;1.70;;;13.50;49.00;;;;;;5089444;28;20173;-69
2021/04/04 12:58:06;;;;;;;4.10;1.97;;;13.70;49.60;;;;;;5093620;28;20453;-69
2021/04/04 13:00:40;;;;;;;3.33;2.07;;;13.90;49.20;;;;;;5095745;28;20729;-67
2021/04/04 13:03:15;;;;;;;4.17;1.70;;;14.00;49.50;;;;;;5094703;28;20403;-67
2021/04/04 13:05:43;;;;;;;4.45;2.38;;;14.10;49.20;;;;;;5078358;28;20605;-68
2021/04/04 13:08:29;;;;;;;3.73;1.73;;;14.20;49.90;;;;;;5095737;28;20691;-69
2021/04/04 13:10:57;;;;;;;3.40;1.60;;;14.40;48.90;;;;;;5095453;28;20455;-70
2021/04/04 13:13:34;;;;;;;4.70;1.30;;;14.50;49.70;;;;;;5096041;28;20747;-69
2021/04/04 13:16:05;;;;;;;6.07;1.80;;;14.60;48.70;;;;;;5094835;28;20511;-68
2021/04/04 13:18:33;;;;;;;4.13;1.90;;;14.60;48.40;;;;;;5095394;28;20897;-69